Sturkie, Arkansas
Current Conditions -  °F | °C
As of 7:53 AM on Sunday 25 Jan 2015 (Local Time) from KUNO Reporting Station
Overcast Overcast  
Wind Chill: 38°   Ceiling: 5000
Heat Index: 43°   Visibility: 10mi
Dew Point: 40°   Wind: 8mph
Humidity: 89%   Direction: 230°SW
Pressure: 29.65"   Gusts: NA
Location:  36.46°N, 91.87°W
Report Text: KUNO 251353Z AUTO 23007KT 10SM FEW032 BKN050 OVC060 06/04 A2965 RMK AO2 RAB01E46 SLP041 P0002 T00610044
Loading
Personal Weather Stations






























Interactive Weather Map New forecast layout! Learn more

10-Day Weather Forecast

Advertisements
Track Severe Weather on mobile